createdAt,value
2018-07-26T00:00:43.253Z,99.99
2018-07-26T00:01:43.168Z,99.99
2018-07-26T00:02:43.107Z,99.99
2018-07-26T00:03:42.988Z,99.99
2018-07-26T00:04:42.903Z,99.99
2018-07-26T00:05:42.812Z,99.99
2018-07-26T00:06:42.723Z,99.99
2018-07-26T00:07:42.664Z,99.99
2018-07-26T00:08:42.543Z,99.99
2018-07-26T00:09:42.458Z,99.99
2018-07-26T00:10:42.370Z,99.99
2018-07-26T00:11:42.279Z,99.99
2018-07-26T00:12:42.220Z,99.99
2018-07-26T00:13:42.102Z,99.99
2018-07-26T00:14:42.015Z,99.99
2018-07-26T00:15:41.924Z,99.99
2018-07-26T00:16:41.836Z,99.99
2018-07-26T00:17:41.779Z,99.99
2018-07-26T00:18:41.659Z,99.99
2018-07-26T00:19:41.574Z,99.99
2018-07-26T00:20:41.580Z,99.99
2018-07-26T00:21:41.447Z,99.99
2018-07-26T00:22:41.336Z,99.99
2018-07-26T00:23:41.214Z,99.99
2018-07-26T00:24:41.124Z,99.99
2018-07-26T00:25:41.041Z,99.99
2018-07-26T00:26:40.950Z,99.99
2018-07-26T00:27:41.027Z,99.99
2018-07-26T00:28:40.770Z,99.99
2018-07-26T00:29:40.681Z,99.99
2018-07-26T00:30:40.595Z,99.99
2018-07-26T00:31:40.506Z,99.99
2018-07-26T00:32:40.453Z,99.99
2018-07-26T00:33:40.329Z,99.99
2018-07-26T00:34:40.334Z,99.99
2018-07-26T00:35:40.150Z,99.99
2018-07-26T00:36:40.064Z,99.99
2018-07-26T00:37:39.972Z,99.99
2018-07-26T00:38:39.915Z,99.99
2018-07-26T00:39:39.796Z,99.99
2018-07-26T00:40:39.707Z,99.99
2018-07-26T00:41:39.709Z,99.99
2018-07-26T00:42:39.526Z,99.99
2018-07-26T00:43:39.470Z,99.99
2018-07-26T00:44:39.350Z,99.99
2018-07-26T00:45:39.263Z,99.99
2018-07-26T00:46:39.173Z,99.99
2018-07-26T00:47:39.083Z,99.99
2018-07-26T00:48:39.171Z,99.99
2018-07-26T00:49:38.909Z,99.99
2018-07-26T00:50:38.819Z,99.99
2018-07-26T00:51:38.732Z,99.99
2018-07-26T00:52:38.642Z,99.99
2018-07-26T00:53:38.588Z,99.99
2018-07-26T00:54:38.466Z,99.99
2018-07-26T00:55:38.467Z,99.99
2018-07-26T00:56:38.283Z,99.99
2018-07-26T00:57:38.195Z,99.99
2018-07-26T00:58:38.137Z,99.99
2018-07-26T00:59:38.016Z,99.99
2018-07-26T01:00:37.926Z,99.99
2018-07-26T01:01:37.839Z,99.99
2018-07-26T01:02:37.848Z,99.99
2018-07-26T01:03:37.691Z,99.99
2018-07-26T01:04:37.569Z,99.99
2018-07-26T01:05:37.483Z,99.99
2018-07-26T01:06:37.394Z,99.99
2018-07-26T01:07:37.306Z,99.99
2018-07-26T01:08:37.247Z,99.99
2018-07-26T01:09:37.275Z,99.99
2018-07-26T01:10:37.038Z,99.99
2018-07-26T01:11:36.948Z,99.99
2018-07-26T01:12:36.855Z,99.99
2018-07-26T01:13:36.805Z,99.99
2018-07-26T01:14:36.700Z,99.99
2018-07-26T01:15:36.592Z,99.99
2018-07-26T01:16:36.602Z,99.99
2018-07-26T01:17:36.413Z,99.99
2018-07-26T01:18:36.355Z,99.99
2018-07-26T01:19:36.236Z,99.99
2018-07-26T01:20:36.148Z,99.99
2018-07-26T01:21:36.058Z,99.99
2018-07-26T01:22:35.970Z,99.99
2018-07-26T01:23:36.009Z,99.99
2018-07-26T01:24:35.794Z,99.99
2018-07-26T01:25:35.705Z,99.99
2018-07-26T01:26:35.613Z,99.99
2018-07-26T01:27:35.524Z,99.99
2018-07-26T01:28:35.464Z,99.99
2018-07-26T01:29:35.439Z,99.99
2018-07-26T01:30:35.255Z,99.99
2018-07-26T01:31:35.171Z,99.99
2018-07-26T01:32:35.081Z,99.99
2018-07-26T01:33:35.018Z,99.99
2018-07-26T01:34:34.902Z,99.99
2018-07-26T01:35:34.822Z,99.99
2018-07-26T01:36:34.724Z,99.99
2018-07-26T01:37:34.728Z,99.99
2018-07-26T01:38:34.576Z,99.99
2018-07-26T01:39:34.457Z,99.99
2018-07-26T01:40:34.381Z,99.99
2018-07-26T01:41:34.277Z,99.99
2018-07-26T01:42:34.190Z,99.99
2018-07-26T01:43:34.131Z,99.99
2018-07-26T01:44:34.011Z,99.99
2018-07-26T01:45:33.920Z,99.99
2018-07-26T01:46:33.830Z,99.99
2018-07-26T01:47:33.741Z,99.99
2018-07-26T01:48:33.683Z,99.99
2018-07-26T01:49:33.567Z,99.99
2018-07-26T01:50:33.476Z,99.99
2018-07-26T01:51:33.387Z,99.99
2018-07-26T01:52:33.297Z,99.99
2018-07-26T01:53:33.237Z,99.99
2018-07-26T01:54:33.119Z,99.99
2018-07-26T01:55:33.027Z,99.99
2018-07-26T01:56:32.939Z,99.99
2018-07-26T01:57:32.850Z,99.99
2018-07-26T01:58:32.795Z,99.99
2018-07-26T01:59:32.671Z,99.99
2018-07-26T02:00:32.584Z,99.99
2018-07-26T02:01:32.522Z,99.99
2018-07-26T02:02:32.407Z,99.99
2018-07-26T02:03:32.346Z,99.99
2018-07-26T02:04:32.226Z,99.99
2018-07-26T02:05:32.137Z,99.99
2018-07-26T02:06:32.051Z,99.99
2018-07-26T02:07:31.959Z,99.99
2018-07-26T02:08:31.872Z,99.99
2018-07-26T02:09:31.811Z,99.99
2018-07-26T02:10:31.691Z,99.99
2018-07-26T02:11:31.598Z,99.99
2018-07-26T02:12:31.511Z,99.99
2018-07-26T02:13:31.425Z,99.99
2018-07-26T02:14:31.363Z,99.99
2018-07-26T02:15:31.242Z,99.99
2018-07-26T02:16:31.152Z,99.99
2018-07-26T02:17:31.070Z,99.99
2018-07-26T02:18:30.976Z,99.99
2018-07-26T02:19:30.916Z,99.99
2018-07-26T02:20:30.797Z,99.99
2018-07-26T02:21:30.708Z,99.99
2018-07-26T02:22:30.616Z,99.99
2018-07-26T02:23:30.530Z,99.99
2018-07-26T02:24:30.471Z,99.99
2018-07-26T02:25:30.351Z,99.99
2018-07-26T02:26:30.265Z,99.99
2018-07-26T02:27:30.171Z,99.99
2018-07-26T02:28:30.082Z,99.99
2018-07-26T02:29:30.023Z,99.99
2018-07-26T02:30:29.904Z,99.99
2018-07-26T02:31:29.815Z,99.99
2018-07-26T02:32:29.726Z,99.99
2018-07-26T02:33:29.636Z,99.99
2018-07-26T02:34:29.581Z,99.99
2018-07-26T02:35:29.460Z,99.99
2018-07-26T02:36:29.369Z,99.99
2018-07-26T02:37:29.281Z,99.99
2018-07-26T02:38:29.188Z,99.99
2018-07-26T02:39:29.129Z,99.99
2018-07-26T02:40:29.009Z,99.99
2018-07-26T02:41:28.919Z,99.99
2018-07-26T02:42:28.834Z,99.99
2018-07-26T02:43:28.742Z,99.99
2018-07-26T02:44:28.685Z,99.99
2018-07-26T02:45:28.564Z,99.99
2018-07-26T02:46:28.476Z,99.99
2018-07-26T02:47:28.392Z,99.99
2018-07-26T02:48:28.294Z,99.99
2018-07-26T02:49:28.234Z,99.99
2018-07-26T02:50:28.120Z,99.99
2018-07-26T02:51:28.035Z,99.99
2018-07-26T02:52:27.960Z,99.99
2018-07-26T02:53:27.848Z,99.99
2018-07-26T02:54:27.789Z,99.99
2018-07-26T02:55:27.669Z,99.99
2018-07-26T02:56:27.581Z,99.99
2018-07-26T02:57:27.488Z,99.99
2018-07-26T02:58:27.402Z,99.99
2018-07-26T02:59:27.343Z,99.99
2018-07-26T03:00:27.330Z,99.99
2018-07-26T03:01:27.135Z,99.99
2018-07-26T03:02:27.043Z,99.99
2018-07-26T03:03:26.954Z,99.99
2018-07-26T03:04:26.902Z,99.99
2018-07-26T03:05:26.775Z,99.99
2018-07-26T03:06:26.690Z,99.99
2018-07-26T03:07:26.694Z,99.99
2018-07-26T03:08:26.507Z,99.99
2018-07-26T03:09:26.449Z,99.99
2018-07-26T03:10:26.331Z,99.99
2018-07-26T03:11:26.238Z,99.99
2018-07-26T03:12:26.155Z,99.99
2018-07-26T03:13:26.061Z,99.99
2018-07-26T03:14:26.099Z,99.99
2018-07-26T03:15:25.884Z,99.99
2018-07-26T03:16:25.792Z,99.99
2018-07-26T03:17:25.701Z,99.99
2018-07-26T03:18:25.614Z,99.99
2018-07-26T03:19:25.552Z,99.99
2018-07-26T03:20:25.434Z,99.99
2018-07-26T03:21:25.453Z,99.99
2018-07-26T03:22:25.258Z,99.99
2018-07-26T03:23:25.163Z,99.99
2018-07-26T03:24:25.134Z,99.99
2018-07-26T03:25:24.989Z,99.99
2018-07-26T03:26:24.897Z,99.99
2018-07-26T03:27:24.807Z,99.99
2018-07-26T03:28:24.813Z,99.99
2018-07-26T03:29:24.656Z,99.99
2018-07-26T03:30:24.541Z,99.99
2018-07-26T03:31:24.453Z,99.99
2018-07-26T03:32:24.357Z,99.99
2018-07-26T03:33:24.270Z,99.99
2018-07-26T03:34:24.210Z,99.99
2018-07-26T03:35:24.192Z,99.99
2018-07-26T03:36:24.000Z,99.99
2018-07-26T03:37:23.912Z,99.99
2018-07-26T03:38:23.820Z,99.99
2018-07-26T03:39:23.760Z,99.99
2018-07-26T03:40:23.645Z,99.99
2018-07-26T03:41:23.550Z,99.99
2018-07-26T03:42:23.570Z,99.99
2018-07-26T03:43:23.374Z,99.99
2018-07-26T03:44:23.313Z,99.99
2018-07-26T03:45:23.196Z,99.99
2018-07-26T03:46:23.106Z,99.99
2018-07-26T03:47:23.013Z,99.99
2018-07-26T03:48:22.926Z,99.99
2018-07-26T03:49:22.931Z,99.99
2018-07-26T03:50:22.773Z,99.99
2018-07-26T03:51:22.677Z,99.99
2018-07-26T03:52:22.565Z,99.99
2018-07-26T03:53:22.476Z,99.99
2018-07-26T03:54:22.385Z,99.99
2018-07-26T03:55:22.326Z,99.99
2018-07-26T03:56:22.303Z,99.99
2018-07-26T03:57:22.118Z,99.99
2018-07-26T03:58:22.030Z,99.99
2018-07-26T03:59:21.936Z,99.99
2018-07-26T04:00:21.877Z,99.99
2018-07-26T04:01:21.756Z,99.99
2018-07-26T04:02:21.667Z,99.99
2018-07-26T04:03:21.715Z,99.99
2018-07-26T04:04:21.486Z,99.99
2018-07-26T04:05:21.434Z,99.99
2018-07-26T04:06:21.307Z,99.99
2018-07-26T04:07:21.220Z,99.99
2018-07-26T04:08:21.129Z,99.99
2018-07-26T04:09:21.041Z,99.99
2018-07-26T04:10:21.074Z,99.99
2018-07-26T04:11:20.861Z,99.99
2018-07-26T04:12:20.772Z,99.99
2018-07-26T04:13:20.682Z,99.99
2018-07-26T04:14:20.593Z,99.99
2018-07-26T04:15:20.533Z,99.99
2018-07-26T04:16:20.504Z,99.99
2018-07-26T04:17:20.325Z,99.99
2018-07-26T04:18:20.234Z,99.99
2018-07-26T04:19:20.144Z,99.99
2018-07-26T04:20:20.084Z,99.99
2018-07-26T04:21:19.967Z,99.99
2018-07-26T04:22:19.874Z,99.99
2018-07-26T04:23:19.784Z,99.99
2018-07-26T04:24:19.803Z,99.99
2018-07-26T04:25:19.642Z,99.99
2018-07-26T04:26:19.519Z,99.99
2018-07-26T04:27:19.427Z,99.99
2018-07-26T04:28:19.339Z,99.99
2018-07-26T04:29:19.248Z,99.99
2018-07-26T04:30:19.287Z,99.99
2018-07-26T04:31:19.071Z,99.99
2018-07-26T04:32:18.982Z,99.99
2018-07-26T04:33:18.892Z,99.99
2018-07-26T04:34:18.806Z,99.99
2018-07-26T04:35:18.748Z,99.99
2018-07-26T04:36:18.628Z,99.99
2018-07-26T04:37:18.539Z,99.99
2018-07-26T04:38:18.447Z,99.99
2018-07-26T04:39:18.357Z,99.99
2018-07-26T04:40:18.299Z,99.99
2018-07-26T04:41:18.181Z,99.99
2018-07-26T04:42:18.089Z,99.99
2018-07-26T04:43:17.998Z,99.99
2018-07-26T04:44:17.913Z,99.99
2018-07-26T04:45:17.850Z,99.99
2018-07-26T04:46:17.736Z,99.99
2018-07-26T04:47:17.643Z,99.99
2018-07-26T04:48:17.555Z,99.99
2018-07-26T04:49:17.468Z,99.99
2018-07-26T04:50:17.411Z,99.99
2018-07-26T04:51:17.286Z,99.99
2018-07-26T04:52:17.202Z,99.99
2018-07-26T04:53:17.110Z,99.99
2018-07-26T04:54:17.021Z,99.99
2018-07-26T04:55:16.964Z,99.99
2018-07-26T04:56:16.848Z,99.99
2018-07-26T04:57:16.756Z,99.99
2018-07-26T04:58:16.669Z,99.99
2018-07-26T04:59:16.579Z,99.99
2018-07-26T05:00:16.524Z,99.99
2018-07-26T05:01:16.404Z,99.99
2018-07-26T05:02:16.316Z,99.99
2018-07-26T05:03:16.226Z,99.99
2018-07-26T05:04:16.135Z,99.99
2018-07-26T05:05:16.083Z,99.99
2018-07-26T05:06:15.958Z,99.99
2018-07-26T05:07:15.870Z,99.99
2018-07-26T05:08:15.783Z,99.99
2018-07-26T05:09:15.695Z,99.99
2018-07-26T05:10:15.613Z,99.99
2018-07-26T05:11:15.547Z,99.99
2018-07-26T05:12:15.429Z,99.99
2018-07-26T05:13:15.343Z,99.99
2018-07-26T05:14:15.252Z,99.99
2018-07-26T05:15:15.172Z,99.99
2018-07-26T05:16:15.109Z,99.99
2018-07-26T05:17:15.000Z,99.99
2018-07-26T05:18:14.902Z,99.99
2018-07-26T05:19:14.815Z,99.99
2018-07-26T05:20:14.731Z,99.99
2018-07-26T05:21:14.669Z,99.99
2018-07-26T05:22:14.555Z,99.99
2018-07-26T05:23:14.466Z,99.99
2018-07-26T05:24:14.377Z,99.99
2018-07-26T05:25:14.290Z,99.99
2018-07-26T05:26:14.232Z,99.99
2018-07-26T05:27:14.114Z,99.99
2018-07-26T05:28:14.028Z,99.99
2018-07-26T05:29:13.943Z,99.99
2018-07-26T05:30:13.851Z,99.99
2018-07-26T05:31:13.799Z,99.99
2018-07-26T05:32:13.677Z,99.99
2018-07-26T05:33:13.591Z,99.99
2018-07-26T05:34:13.502Z,99.99
2018-07-26T05:35:13.415Z,99.99
2018-07-26T05:36:13.358Z,99.99
2018-07-26T05:37:13.240Z,99.99
2018-07-26T05:38:13.158Z,99.99
2018-07-26T05:39:13.070Z,99.99
2018-07-26T05:40:12.984Z,99.99
2018-07-26T05:41:12.928Z,99.99
2018-07-26T05:42:12.809Z,99.99
2018-07-26T05:43:12.783Z,99.99
2018-07-26T05:44:12.636Z,99.99
2018-07-26T05:45:12.550Z,99.99
2018-07-26T05:46:12.493Z,99.99
2018-07-26T05:47:12.373Z,99.99
2018-07-26T05:48:12.287Z,99.99
2018-07-26T05:49:12.203Z,99.99
2018-07-26T05:50:12.117Z,99.99
2018-07-26T05:51:12.062Z,99.99
2018-07-26T05:52:11.953Z,99.99
2018-07-26T05:53:11.910Z,99.99
2018-07-26T05:54:11.772Z,99.88
2018-07-26T05:55:11.792Z,99.40
2018-07-26T05:56:11.627Z,99.11
2018-07-26T05:57:11.515Z,98.63
2018-07-26T05:58:11.425Z,98.44
2018-07-26T05:59:11.338Z,98.15
2018-07-26T06:00:11.272Z,97.86
2018-07-26T06:01:11.201Z,98.05
2018-07-26T06:02:11.184Z,98.39
2018-07-26T06:03:10.998Z,97.33
2018-07-26T06:04:10.914Z,97.04
2018-07-26T06:05:10.823Z,97.62
2018-07-26T06:06:10.768Z,96.27
2018-07-26T06:07:10.655Z,95.31
2018-07-26T06:08:10.567Z,97.24
2018-07-26T06:09:10.580Z,97.81
2018-07-26T06:10:10.399Z,97.19
2018-07-26T06:11:10.361Z,97.77
2018-07-26T06:12:10.229Z,95.93
2018-07-26T06:13:10.145Z,95.83
2018-07-26T06:14:10.057Z,93.32
2018-07-26T06:15:09.970Z,93.23
2018-07-26T06:16:10.048Z,93.71
2018-07-26T06:17:09.851Z,93.95
2018-07-26T06:18:09.760Z,94.24
2018-07-26T06:19:09.630Z,93.66
2018-07-26T06:20:09.544Z,93.18
2018-07-26T06:21:09.489Z,93.56
2018-07-26T06:22:09.373Z,94.04
2018-07-26T06:23:09.383Z,93.47
2018-07-26T06:24:09.202Z,93.27
2018-07-26T06:25:09.119Z,93.08
2018-07-26T06:26:09.064Z,92.69
2018-07-26T06:27:08.949Z,92.50
2018-07-26T06:28:08.926Z,92.65
2018-07-26T06:29:08.779Z,90.37
2018-07-26T06:30:08.787Z,89.36
2018-07-26T06:31:08.638Z,89.55
2018-07-26T06:32:08.521Z,90.91
2018-07-26T06:33:08.439Z,91.00
2018-07-26T06:34:08.354Z,91.67
2018-07-26T06:35:08.272Z,92.07
2018-07-26T06:36:08.186Z,93.80
2018-07-26T06:37:08.222Z,93.27
2018-07-26T06:38:08.014Z,93.56
2018-07-26T06:39:07.929Z,91.43
2018-07-26T06:40:07.847Z,92.79
2018-07-26T06:41:07.765Z,92.21
2018-07-26T06:42:07.709Z,92.21
2018-07-26T06:43:07.588Z,91.72
2018-07-26T06:44:07.608Z,92.79
2018-07-26T06:45:07.423Z,92.11
2018-07-26T06:46:07.341Z,91.63
2018-07-26T06:47:07.340Z,90.03
2018-07-26T06:48:07.168Z,88.71
2018-07-26T06:49:07.082Z,86.88
2018-07-26T06:50:06.999Z,85.80
2018-07-26T06:51:07.013Z,84.64
2018-07-26T06:52:06.860Z,82.75
2018-07-26T06:53:06.799Z,84.10
2018-07-26T06:54:06.664Z,82.88
2018-07-26T06:55:06.577Z,83.42
2018-07-26T06:56:06.499Z,81.82
2018-07-26T06:57:06.525Z,80.40
2018-07-26T06:58:06.329Z,80.50
2018-07-26T06:59:06.248Z,79.80
2018-07-26T07:00:06.160Z,79.22
2018-07-26T07:01:06.083Z,77.22
2018-07-26T07:02:06.026Z,75.99
2018-07-26T07:03:06.038Z,74.05
2018-07-26T07:04:05.832Z,73.30
2018-07-26T07:05:05.750Z,72.82
2018-07-26T07:06:05.671Z,73.05
2018-07-26T07:07:05.619Z,72.56
2018-07-26T07:08:05.528Z,72.86
2018-07-26T07:09:05.422Z,71.20
2018-07-26T07:10:05.353Z,71.23
2018-07-26T07:11:05.264Z,71.04
2018-07-26T07:12:05.215Z,71.47
2018-07-26T07:13:05.110Z,72.02
2018-07-26T07:14:05.023Z,71.23
2018-07-26T07:15:04.941Z,71.33
2018-07-26T07:16:04.863Z,71.88
2018-07-26T07:17:04.901Z,71.04
2018-07-26T07:18:04.701Z,71.88
2018-07-26T07:19:04.631Z,70.85
2018-07-26T07:20:04.542Z,69.52
2018-07-26T07:21:04.464Z,69.84
2018-07-26T07:22:04.412Z,68.38
2018-07-26T07:23:04.428Z,68.38
2018-07-26T07:24:04.227Z,67.44
2018-07-26T07:25:04.147Z,66.76
2018-07-26T07:26:04.129Z,63.96
2018-07-26T07:27:04.022Z,64.36
2018-07-26T07:28:03.912Z,64.06
2018-07-26T07:29:03.832Z,63.90
2018-07-26T07:30:03.758Z,63.51
2018-07-26T07:31:03.677Z,63.41
2018-07-26T07:32:03.627Z,63.02
2018-07-26T07:33:03.521Z,62.53
2018-07-26T07:34:03.443Z,63.24
2018-07-26T07:35:03.364Z,62.37
2018-07-26T07:36:03.292Z,61.88
2018-07-26T07:37:03.242Z,60.64
2018-07-26T07:38:03.133Z,60.06
2018-07-26T07:39:03.053Z,60.22
2018-07-26T07:40:02.979Z,60.16
2018-07-26T07:41:02.903Z,59.20
2018-07-26T07:42:02.860Z,59.92
2018-07-26T07:43:02.769Z,58.47
2018-07-26T07:44:02.775Z,61.01
2018-07-26T07:45:02.596Z,62.18
2018-07-26T07:46:02.585Z,62.99
2018-07-26T07:47:02.471Z,61.54
2018-07-26T07:48:02.366Z,63.75
2018-07-26T07:49:02.288Z,62.80
2018-07-26T07:50:02.212Z,61.86
2018-07-26T07:51:02.132Z,61.79
2018-07-26T07:52:02.089Z,61.46
2018-07-26T07:53:01.982Z,60.61
2018-07-26T07:54:01.912Z,59.64
2018-07-26T07:55:01.830Z,59.86
2018-07-26T07:56:01.753Z,59.28
2018-07-26T07:57:01.794Z,59.38
2018-07-26T07:58:01.599Z,60.06
2018-07-26T07:59:01.523Z,59.89
2018-07-26T08:00:01.448Z,57.10
2018-07-26T08:01:01.372Z,57.29
2018-07-26T08:02:01.327Z,59.97
2018-07-26T08:03:01.219Z,56.07
2018-07-26T08:04:01.233Z,57.43
2018-07-26T08:05:01.067Z,57.70
2018-07-26T08:06:00.993Z,56.43
2018-07-26T08:07:00.944Z,58.15
2018-07-26T08:08:00.839Z,58.25
2018-07-26T08:09:00.764Z,59.58
2018-07-26T08:10:00.692Z,57.98
2018-07-26T08:11:00.704Z,57.49
2018-07-26T08:12:00.538Z,58.01
2018-07-26T08:13:00.490Z,58.98
2018-07-26T08:14:00.385Z,58.89
2018-07-26T08:15:00.306Z,56.18
2018-07-26T08:16:00.239Z,56.57
2018-07-26T08:17:00.157Z,57.31
2018-07-26T08:18:00.113Z,56.04
2018-07-26T08:19:00.007Z,53.42
2018-07-26T08:19:59.943Z,51.76
2018-07-26T08:20:59.858Z,54.28
2018-07-26T08:21:59.777Z,54.93
2018-07-26T08:22:59.729Z,52.88
2018-07-26T08:23:59.625Z,52.29
2018-07-26T08:24:59.551Z,52.22
2018-07-26T08:25:59.475Z,51.56
2018-07-26T08:26:59.399Z,50.29
2018-07-26T08:27:59.352Z,51.73
2018-07-26T08:28:59.247Z,50.44
2018-07-26T08:29:59.172Z,51.61
2018-07-26T08:30:59.093Z,52.64
2018-07-26T08:31:59.041Z,52.80
2018-07-26T08:32:58.975Z,53.66
2018-07-26T08:33:58.868Z,53.85
2018-07-26T08:34:58.804Z,54.99
2018-07-26T08:35:58.714Z,56.70
2018-07-26T08:36:58.645Z,54.26
2018-07-26T08:37:58.597Z,54.48
2018-07-26T08:38:58.485Z,56.75
2018-07-26T08:39:58.414Z,55.32
2018-07-26T08:40:58.393Z,53.58
2018-07-26T08:41:58.263Z,52.08
2018-07-26T08:42:58.213Z,49.97
2018-07-26T08:43:58.105Z,50.46
2018-07-26T08:44:58.033Z,51.76
2018-07-26T08:45:57.957Z,49.70
2018-07-26T08:46:57.884Z,48.65
2018-07-26T08:47:57.836Z,48.55
2018-07-26T08:48:57.732Z,48.92
2018-07-26T08:49:57.659Z,50.98
2018-07-26T08:50:57.582Z,54.85
2018-07-26T08:51:57.505Z,56.67
2018-07-26T08:52:57.453Z,56.79
2018-07-26T08:53:57.350Z,56.33
2018-07-26T08:54:57.270Z,55.87
2018-07-26T08:55:57.198Z,54.99
2018-07-26T08:56:57.134Z,54.05
2018-07-26T08:57:57.073Z,53.80
2018-07-26T08:58:56.970Z,55.82
2018-07-26T08:59:56.889Z,56.45
2018-07-26T09:00:56.814Z,56.64
2018-07-26T09:01:56.738Z,58.29
2018-07-26T09:02:56.691Z,59.05
2018-07-26T09:03:56.590Z,59.23
2018-07-26T09:04:56.508Z,56.54
2018-07-26T09:05:56.433Z,57.03
2018-07-26T09:06:56.353Z,56.84
2018-07-26T09:07:56.309Z,57.59
2018-07-26T09:08:56.198Z,57.95
2018-07-26T09:09:56.129Z,58.72
2018-07-26T09:10:56.102Z,60.96
2018-07-26T09:11:55.963Z,59.63
2018-07-26T09:12:55.916Z,58.42
2018-07-26T09:13:55.814Z,58.25
2018-07-26T09:14:55.729Z,56.18
2018-07-26T09:15:55.653Z,57.25
2018-07-26T09:16:55.573Z,58.13
2018-07-26T09:17:55.527Z,58.97
2018-07-26T09:18:55.417Z,58.82
2018-07-26T09:19:55.434Z,59.21
2018-07-26T09:20:55.272Z,59.21
2018-07-26T09:21:55.185Z,60.15
2018-07-26T09:22:55.134Z,61.19
2018-07-26T09:23:55.026Z,60.02
2018-07-26T09:24:54.949Z,60.41
2018-07-26T09:25:54.870Z,60.90
2018-07-26T09:26:54.791Z,61.29
2018-07-26T09:27:54.745Z,61.68
2018-07-26T09:28:54.704Z,61.58
2018-07-26T09:29:54.555Z,63.04
2018-07-26T09:30:54.477Z,63.07
2018-07-26T09:31:54.396Z,62.51
2018-07-26T09:32:54.373Z,63.00
2018-07-26T09:33:54.346Z,61.54
2018-07-26T09:34:54.156Z,61.44
2018-07-26T09:35:54.084Z,63.13
2018-07-26T09:36:54.000Z,62.29
2018-07-26T09:37:53.951Z,64.04
2018-07-26T09:38:53.841Z,61.90
2018-07-26T09:39:53.763Z,59.75
2018-07-26T09:40:53.781Z,60.63
2018-07-26T09:41:53.604Z,63.55
2018-07-26T09:42:53.525Z,61.90
2018-07-26T09:43:53.477Z,63.16
2018-07-26T09:44:53.365Z,63.35
2018-07-26T09:45:53.288Z,61.77
2018-07-26T09:46:53.206Z,62.54
2018-07-26T09:47:53.224Z,63.00
2018-07-26T09:48:53.077Z,63.68
2018-07-26T09:49:53.088Z,67.24
2018-07-26T09:50:52.890Z,65.89
2018-07-26T09:51:52.811Z,63.84
2018-07-26T09:52:56.508Z,65.01
2018-07-26T09:53:52.680Z,64.49
2018-07-26T09:54:52.843Z,65.66
2018-07-26T09:55:52.493Z,66.53
2018-07-26T09:56:52.414Z,65.27
2018-07-26T09:57:52.337Z,65.75
2018-07-26T09:58:52.286Z,67.89
2018-07-26T09:59:52.174Z,67.93
2018-07-26T10:00:52.093Z,68.77
2018-07-26T10:01:52.110Z,70.65
2018-07-26T10:02:51.935Z,70.75
2018-07-26T10:03:51.885Z,67.05
2018-07-26T10:04:51.771Z,68.22
2018-07-26T10:05:51.695Z,71.62
2018-07-26T10:06:51.633Z,70.75
2018-07-26T10:07:51.533Z,71.13
2018-07-26T10:08:51.569Z,70.78
2018-07-26T10:09:51.374Z,68.77
2018-07-26T10:10:51.292Z,68.64
2018-07-26T10:11:51.214Z,65.23
2018-07-26T10:12:51.132Z,63.60
2018-07-26T10:13:51.083Z,60.55
2018-07-26T10:14:50.971Z,61.94
2018-07-26T10:15:51.007Z,61.09
2018-07-26T10:16:50.814Z,58.38
2018-07-26T10:17:50.736Z,55.47
2018-07-26T10:18:50.691Z,55.57
2018-07-26T10:19:50.596Z,54.36
2018-07-26T10:20:50.499Z,53.57
2018-07-26T10:21:50.420Z,54.30
2018-07-26T10:22:50.436Z,53.47
2018-07-26T10:23:50.293Z,55.59
2018-07-26T10:24:50.187Z,55.03
2018-07-26T10:25:50.108Z,53.39
2018-07-26T10:26:50.031Z,54.33
2018-07-26T10:27:50.015Z,54.94
2018-07-26T10:28:49.910Z,52.89
2018-07-26T10:29:49.940Z,53.69
2018-07-26T10:30:49.721Z,51.34
2018-07-26T10:31:49.667Z,49.63
2018-07-26T10:32:49.568Z,50.78
2018-07-26T10:33:49.524Z,49.95
2018-07-26T10:34:49.413Z,50.32
2018-07-26T10:35:49.336Z,51.66
2018-07-26T10:36:49.353Z,52.44
2018-07-26T10:37:49.185Z,52.80
2018-07-26T10:38:49.138Z,53.85
2018-07-26T10:39:49.029Z,53.31
2018-07-26T10:40:48.952Z,54.77
2018-07-26T10:41:48.876Z,55.43
2018-07-26T10:42:48.798Z,56.70
2018-07-26T10:43:48.753Z,56.79
2018-07-26T10:44:48.644Z,59.46
2018-07-26T10:45:48.567Z,60.82
2018-07-26T10:46:48.492Z,60.53
2018-07-26T10:47:48.413Z,60.11
2018-07-26T10:48:48.368Z,61.47
2018-07-26T10:49:48.257Z,61.67
2018-07-26T10:50:48.180Z,59.92
2018-07-26T10:51:48.102Z,59.21
2018-07-26T10:52:48.028Z,59.63
2018-07-26T10:53:47.976Z,59.59
2018-07-26T10:54:47.864Z,59.92
2018-07-26T10:55:47.787Z,62.35
2018-07-26T10:56:47.713Z,61.67
2018-07-26T10:57:47.629Z,60.44
2018-07-26T10:58:47.580Z,62.84
2018-07-26T10:59:47.472Z,62.74
2018-07-26T11:00:47.395Z,64.88
2018-07-26T11:01:47.314Z,65.85
2018-07-26T11:02:47.235Z,64.00
2018-07-26T11:03:47.210Z,62.19
2018-07-26T11:04:47.084Z,63.42
2018-07-26T11:05:47.000Z,60.82
2018-07-26T11:06:46.922Z,63.97
2018-07-26T11:07:46.840Z,59.56
2018-07-26T11:08:46.789Z,59.20
2018-07-26T11:09:46.683Z,60.69
2018-07-26T11:10:46.605Z,60.56
2018-07-26T11:11:46.522Z,58.78
2018-07-26T11:12:46.445Z,60.82
2018-07-26T11:13:46.368Z,62.08
2018-07-26T11:14:46.318Z,60.20
2018-07-26T11:15:46.208Z,56.92
2018-07-26T11:16:46.134Z,58.60
2018-07-26T11:17:46.050Z,56.79
2018-07-26T11:18:45.975Z,58.81
2018-07-26T11:19:45.926Z,57.51
2018-07-26T11:20:45.815Z,58.00
2018-07-26T11:21:45.734Z,58.78
2018-07-26T11:22:45.654Z,60.24
2018-07-26T11:23:45.576Z,60.66
2018-07-26T11:24:45.529Z,60.39
2018-07-26T11:25:45.453Z,59.09
2018-07-26T11:26:45.337Z,59.22
2018-07-26T11:27:45.263Z,60.55
2018-07-26T11:28:45.184Z,57.21
2018-07-26T11:29:45.184Z,57.34
2018-07-26T11:30:45.026Z,59.26
2018-07-26T11:31:44.943Z,59.45
2018-07-26T11:32:44.866Z,58.77
2018-07-26T11:33:44.789Z,59.33
2018-07-26T11:34:44.741Z,61.02
2018-07-26T11:35:44.629Z,59.43
2018-07-26T11:36:44.556Z,59.59
2018-07-26T11:37:44.479Z,61.44
2018-07-26T11:38:44.393Z,61.71
2018-07-26T11:39:44.343Z,62.97
2018-07-26T11:40:44.232Z,63.36
2018-07-26T11:41:44.175Z,64.95
2018-07-26T11:42:44.073Z,64.85
2018-07-26T11:43:44.045Z,65.56
2018-07-26T11:44:43.948Z,64.04
2018-07-26T11:45:43.840Z,59.06
2018-07-26T11:46:43.756Z,57.26
2018-07-26T11:47:43.676Z,55.08
2018-07-26T11:48:43.598Z,56.40
2018-07-26T11:49:43.552Z,54.40
2018-07-26T11:50:43.439Z,50.20
2018-07-26T11:51:43.363Z,51.78
2018-07-26T11:52:43.356Z,52.91
2018-07-26T11:53:43.202Z,50.76
2018-07-26T11:54:43.155Z,48.77
2018-07-26T11:55:43.046Z,47.03
2018-07-26T11:56:42.970Z,46.66
2018-07-26T11:57:42.890Z,47.35
2018-07-26T11:58:42.813Z,47.23
2018-07-26T11:59:42.771Z,46.27
2018-07-26T12:00:42.659Z,47.47
2018-07-26T12:01:42.626Z,46.78
2018-07-26T12:02:42.506Z,47.57
2018-07-26T12:03:42.431Z,44.65
2018-07-26T12:04:42.383Z,44.35
2018-07-26T12:05:42.277Z,43.33
2018-07-26T12:06:42.201Z,44.46
2018-07-26T12:07:42.125Z,45.42
2018-07-26T12:08:42.050Z,45.34
2018-07-26T12:09:42.006Z,43.99
2018-07-26T12:10:41.899Z,43.62
2018-07-26T12:11:41.823Z,43.72
2018-07-26T12:12:41.748Z,42.39
2018-07-26T12:13:41.675Z,40.86
2018-07-26T12:14:41.626Z,42.29
2018-07-26T12:15:41.526Z,43.26
2018-07-26T12:16:41.445Z,42.62
2018-07-26T12:17:41.392Z,44.48
2018-07-26T12:18:41.294Z,45.03
2018-07-26T12:19:41.275Z,45.03
2018-07-26T12:20:41.145Z,46.44
2018-07-26T12:21:41.071Z,46.94
2018-07-26T12:22:40.995Z,44.48
2018-07-26T12:23:40.923Z,45.25
2018-07-26T12:24:40.879Z,46.23
2018-07-26T12:25:40.771Z,45.15
2018-07-26T12:26:40.697Z,45.32
2018-07-26T12:27:40.619Z,45.52
2018-07-26T12:28:40.545Z,46.65
2018-07-26T12:29:40.506Z,48.77
2018-07-26T12:30:40.396Z,48.85
2018-07-26T12:31:40.328Z,48.83
2018-07-26T12:32:40.246Z,50.00
2018-07-26T12:33:40.170Z,49.78
2018-07-26T12:34:40.127Z,51.53
2018-07-26T12:35:40.025Z,51.24
2018-07-26T12:36:39.944Z,49.51
2018-07-26T12:37:39.871Z,50.49
2018-07-26T12:38:39.795Z,49.26
2018-07-26T12:39:39.720Z,48.68
2018-07-26T12:40:39.670Z,47.02
2018-07-26T12:41:39.566Z,46.94
2018-07-26T12:42:39.585Z,47.31
2018-07-26T12:43:39.475Z,47.09
2018-07-26T12:44:39.340Z,48.38
2018-07-26T12:45:39.292Z,45.13
2018-07-26T12:46:39.188Z,44.56
2018-07-26T12:47:39.135Z,46.20
2018-07-26T12:48:39.036Z,45.73
2018-07-26T12:49:39.057Z,44.27
2018-07-26T12:50:38.914Z,43.37
2018-07-26T12:51:38.811Z,44.59